createdAt,value
2022-12-20T00:01:40.266Z,10.35
2022-12-20T00:04:13.451Z,9.55
2022-12-20T00:06:46.150Z,11.75
2022-12-20T00:09:18.894Z,9.88
2022-12-20T00:11:51.801Z,9.55
2022-12-20T00:14:25.097Z,11.60
2022-12-20T00:16:57.823Z,8.90
2022-12-20T00:19:30.429Z,11.85
2022-12-20T00:22:03.364Z,14.35
2022-12-20T00:24:36.351Z,9.33
2022-12-20T00:27:09.339Z,12.00
2022-12-20T00:29:41.916Z,10.82
2022-12-20T00:32:14.573Z,11.85
2022-12-20T00:34:47.192Z,13.32
2022-12-20T00:37:19.912Z,8.93
2022-12-20T00:39:52.585Z,12.23
2022-12-20T00:42:26.271Z,11.25
2022-12-20T00:44:59.217Z,14.20
2022-12-20T00:47:32.458Z,9.93
2022-12-20T00:50:05.432Z,17.05
2022-12-20T00:52:38.187Z,11.25
2022-12-20T00:55:11.218Z,11.95
2022-12-20T00:57:43.943Z,12.57
2022-12-20T01:00:17.993Z,11.08
2022-12-20T01:02:51.848Z,9.90
2022-12-20T01:05:24.773Z,13.13
2022-12-20T01:07:57.913Z,10.43
2022-12-20T01:10:30.591Z,13.95
2022-12-20T01:13:04.239Z,12.33
2022-12-20T01:15:37.893Z,11.83
2022-12-20T01:18:10.681Z,14.28
2022-12-20T01:20:43.942Z,13.32
2022-12-20T01:23:16.830Z,11.38
2022-12-20T01:25:52.604Z,11.85
2022-12-20T01:28:25.403Z,12.05
2022-12-20T01:30:58.466Z,16.10
2022-12-20T01:33:31.278Z,12.13
2022-12-20T01:36:07.620Z,12.70
2022-12-20T01:38:40.876Z,12.63
2022-12-20T01:41:19.784Z,13.28
2022-12-20T01:44:01.601Z,13.35
2022-12-20T01:46:37.433Z,13.65
2022-12-20T01:49:23.325Z,12.03
2022-12-20T01:52:00.216Z,12.35
2022-12-20T01:54:47.345Z,13.40
2022-12-20T01:57:45.502Z,15.68
2022-12-20T02:00:19.239Z,14.68
2022-12-20T02:02:52.951Z,12.63
2022-12-20T02:05:26.071Z,13.53
2022-12-20T02:07:59.680Z,17.17
2022-12-20T02:10:49.036Z,11.97
2022-12-20T02:13:36.384Z,14.10
2022-12-20T02:16:09.218Z,14.98
2022-12-20T02:18:53.581Z,15.58
2022-12-20T02:21:36.455Z,11.65
2022-12-20T02:24:51.138Z,13.20
2022-12-20T02:27:46.976Z,13.93
2022-12-20T02:30:22.789Z,17.67
2022-12-20T02:33:05.552Z,19.62
2022-12-20T02:35:40.620Z,12.88
2022-12-20T02:38:33.522Z,14.28
2022-12-20T02:41:20.451Z,15.10
2022-12-20T02:44:15.974Z,14.50
2022-12-20T02:46:49.598Z,15.55
2022-12-20T02:49:25.519Z,15.32
2022-12-20T02:51:59.349Z,18.98
2022-12-20T02:54:32.583Z,15.08
2022-12-20T02:57:15.918Z,17.77
2022-12-20T03:00:11.804Z,16.90
2022-12-20T03:03:05.031Z,17.35
2022-12-20T03:05:42.765Z,17.70
2022-12-20T03:08:15.938Z,15.45
2022-12-20T03:10:49.126Z,14.75
2022-12-20T03:13:23.334Z,16.95
2022-12-20T03:16:07.094Z,17.20
2022-12-20T03:18:40.951Z,15.68
2022-12-20T03:21:14.227Z,15.25
2022-12-20T03:23:47.345Z,14.03
2022-12-20T03:26:20.014Z,14.85
2022-12-20T03:28:54.341Z,16.48
2022-12-20T03:31:28.582Z,17.65
2022-12-20T03:34:01.322Z,17.10
2022-12-20T03:36:34.911Z,15.48
2022-12-20T03:39:08.860Z,17.05
2022-12-20T03:41:43.718Z,17.77
2022-12-20T03:44:17.851Z,18.35
2022-12-20T03:46:50.703Z,14.25
2022-12-20T03:49:23.395Z,15.68
2022-12-20T03:51:56.691Z,16.70
2022-12-20T03:54:29.518Z,16.77
2022-12-20T03:57:07.351Z,16.52
2022-12-20T03:59:40.108Z,18.33
2022-12-20T04:04:46.759Z,20.77
2022-12-20T04:07:19.854Z,18.62
2022-12-20T04:09:52.616Z,20.90
2022-12-20T04:12:25.429Z,21.10
2022-12-20T04:14:58.183Z,24.45
2022-12-20T04:17:33.293Z,17.30
2022-12-20T04:20:09.666Z,15.15
2022-12-20T04:22:42.737Z,17.67
2022-12-20T04:25:17.143Z,20.68
2022-12-20T04:27:49.981Z,25.37
2022-12-20T04:30:22.941Z,20.97
2022-12-20T04:32:56.652Z,23.27
2022-12-20T04:35:30.694Z,21.35
2022-12-20T04:38:03.923Z,20.07
2022-12-20T04:40:37.203Z,17.70
2022-12-20T04:43:11.733Z,16.10
2022-12-20T04:45:45.211Z,18.87
2022-12-20T04:48:54.665Z,15.05
2022-12-20T04:50:54.025Z,20.30
2022-12-20T04:53:37.317Z,17.82
2022-12-20T04:56:10.865Z,16.82
2022-12-20T04:58:43.997Z,18.02
2022-12-20T05:01:17.207Z,19.98
2022-12-20T05:03:51.929Z,19.40
2022-12-20T05:06:25.336Z,18.42
2022-12-20T05:08:58.095Z,21.50
2022-12-20T05:11:31.623Z,16.90
2022-12-20T05:14:04.603Z,21.53
2022-12-20T05:16:38.058Z,24.90
2022-12-20T05:19:11.235Z,25.20
2022-12-20T05:22:02.838Z,23.70
2022-12-20T05:24:54.439Z,25.85
2022-12-20T05:27:34.865Z,25.97
2022-12-20T05:30:10.025Z,27.48
2022-12-20T05:32:43.050Z,27.58
2022-12-20T05:37:50.032Z,19.52
2022-12-20T05:40:24.104Z,23.95
2022-12-20T05:42:57.123Z,19.35
2022-12-20T05:45:31.605Z,21.02
2022-12-20T05:48:07.171Z,23.22
2022-12-20T05:50:41.347Z,22.58
2022-12-20T05:53:27.840Z,17.37
2022-12-20T05:56:03.384Z,21.15
2022-12-20T05:58:39.092Z,22.90
2022-12-20T06:01:12.552Z,22.30
2022-12-20T06:03:46.124Z,22.60
2022-12-20T06:06:20.796Z,19.73
2022-12-20T06:08:56.369Z,23.18
2022-12-20T06:11:30.844Z,25.02
2022-12-20T06:14:07.948Z,25.65
2022-12-20T06:16:42.521Z,20.05
2022-12-20T06:21:50.756Z,21.35
2022-12-20T06:24:27.020Z,20.30
2022-12-20T06:26:59.875Z,19.40
2022-12-20T06:29:34.501Z,26.02
2022-12-20T06:32:09.050Z,24.45
2022-12-20T06:34:43.257Z,24.65
2022-12-20T06:37:16.765Z,23.98
2022-12-20T06:39:50.009Z,18.50
2022-12-20T06:42:22.986Z,21.77
2022-12-20T06:44:56.019Z,22.80
2022-12-20T06:47:28.789Z,22.58
2022-12-20T06:50:02.167Z,19.60
2022-12-20T06:52:35.015Z,22.42
2022-12-20T06:55:08.007Z,21.57
2022-12-20T06:57:43.395Z,23.75
2022-12-20T07:00:17.558Z,22.65
2022-12-20T07:02:50.477Z,26.85
2022-12-20T07:05:23.527Z,24.00
2022-12-20T07:07:57.056Z,37.50
2022-12-20T07:10:30.120Z,29.90
2022-12-20T07:13:03.450Z,26.55
2022-12-20T07:15:36.056Z,25.35
2022-12-20T07:18:09.750Z,29.98
2022-12-20T07:20:42.554Z,27.58
2022-12-20T07:23:15.790Z,38.42
2022-12-20T07:25:56.920Z,31.50
2022-12-20T07:28:30.969Z,32.70
2022-12-20T07:31:05.139Z,28.38
2022-12-20T07:33:39.691Z,33.13
2022-12-20T07:36:14.580Z,29.30
2022-12-20T07:38:47.671Z,25.30
2022-12-20T07:41:21.015Z,30.00
2022-12-20T07:43:53.919Z,25.03
2022-12-20T07:46:27.236Z,29.50
2022-12-20T07:49:01.179Z,26.93
2022-12-20T07:51:50.060Z,29.95
2022-12-20T07:54:32.437Z,30.82
2022-12-20T07:57:10.255Z,25.55
2022-12-20T07:59:46.638Z,20.20
2022-12-20T08:02:24.012Z,26.10
2022-12-20T08:04:57.853Z,25.17
2022-12-20T08:07:31.511Z,22.75
2022-12-20T08:10:05.624Z,27.00
2022-12-20T08:12:39.043Z,37.17
2022-12-20T08:15:12.583Z,25.82
2022-12-20T08:17:45.389Z,23.10
2022-12-20T08:20:19.968Z,19.45
2022-12-20T08:25:25.972Z,19.42
2022-12-20T08:28:00.324Z,19.73
2022-12-20T08:30:33.405Z,23.42
2022-12-20T08:33:06.663Z,24.67
2022-12-20T08:35:39.752Z,27.00
2022-12-20T08:38:12.449Z,20.35
2022-12-20T08:40:45.146Z,22.48
2022-12-20T08:43:17.877Z,24.70
2022-12-20T08:45:59.979Z,27.40
2022-12-20T08:48:32.914Z,29.07
2022-12-20T08:51:09.612Z,29.60
2022-12-20T08:53:42.653Z,26.25
2022-12-20T08:56:18.446Z,28.65
2022-12-20T08:58:51.650Z,27.07
2022-12-20T09:01:27.092Z,22.87
2022-12-20T09:04:00.852Z,21.87
2022-12-20T09:06:36.205Z,25.08
2022-12-20T09:09:09.191Z,23.60
2022-12-20T09:11:42.488Z,29.00
2022-12-20T09:14:15.475Z,25.70
2022-12-20T09:16:48.384Z,25.00
2022-12-20T09:19:21.331Z,26.27
2022-12-20T09:21:55.725Z,32.23
2022-12-20T09:24:29.043Z,34.20
2022-12-20T09:27:02.389Z,28.35
2022-12-20T09:29:36.256Z,28.62
2022-12-20T09:32:09.146Z,27.95
2022-12-20T09:34:41.966Z,42.70
2022-12-20T09:37:14.637Z,26.50
2022-12-20T09:39:49.171Z,27.80
2022-12-20T09:42:25.920Z,34.70
2022-12-20T09:45:09.187Z,26.87
2022-12-20T09:47:42.485Z,28.77
2022-12-20T09:50:17.628Z,19.55
2022-12-20T09:52:55.154Z,24.27
2022-12-20T09:55:44.730Z,21.55
2022-12-20T09:58:40.066Z,17.55
2022-12-20T10:01:23.009Z,20.35
2022-12-20T10:03:53.514Z,21.15
2022-12-20T10:06:45.543Z,16.50
2022-12-20T10:09:45.191Z,18.30
2022-12-20T10:12:34.630Z,16.97
2022-12-20T10:15:41.750Z,21.97
2022-12-20T10:18:46.572Z,18.92
2022-12-20T10:21:38.563Z,26.42
2022-12-20T10:24:33.071Z,13.65
2022-12-20T10:29:52.031Z,23.55
2022-12-20T10:32:29.308Z,16.13
2022-12-20T10:35:33.890Z,21.37
2022-12-20T10:38:16.930Z,30.13
2022-12-20T10:41:22.559Z,27.27
2022-12-20T10:44:01.294Z,23.25
2022-12-20T10:46:55.925Z,27.65
2022-12-20T10:49:38.281Z,20.95
2022-12-20T10:52:15.745Z,24.60
2022-12-20T10:54:49.170Z,22.22
2022-12-20T10:57:33.730Z,21.70
2022-12-20T11:00:09.412Z,23.10
2022-12-20T11:02:43.986Z,19.20
2022-12-20T11:05:24.340Z,23.30
2022-12-20T11:08:39.278Z,21.73
2022-12-20T11:10:55.267Z,25.48
2022-12-20T11:13:29.701Z,25.00
2022-12-20T11:16:02.732Z,23.73
2022-12-20T11:18:54.575Z,33.10
2022-12-20T11:21:54.953Z,28.12
2022-12-20T11:24:56.205Z,27.73
2022-12-20T11:27:45.268Z,23.85
2022-12-20T11:30:21.732Z,28.05
2022-12-20T11:33:20.413Z,33.28
2022-12-20T11:36:01.185Z,32.67
2022-12-20T11:38:53.415Z,27.62
2022-12-20T11:41:40.114Z,33.10
2022-12-20T11:44:50.114Z,34.43
2022-12-20T11:48:02.633Z,36.30
2022-12-20T11:50:52.270Z,30.30
2022-12-20T11:53:35.642Z,31.25
2022-12-20T11:56:16.160Z,28.85
2022-12-20T11:58:52.778Z,29.52
2022-12-20T12:01:39.199Z,30.27
2022-12-20T12:04:22.073Z,23.98
2022-12-20T12:06:59.951Z,28.95
2022-12-20T12:09:55.600Z,26.97
2022-12-20T12:12:41.348Z,20.12
2022-12-20T12:15:40.070Z,27.15
2022-12-20T12:18:20.378Z,21.55
2022-12-20T12:21:26.308Z,24.75
2022-12-20T12:24:18.465Z,25.35
2022-12-20T12:26:51.205Z,30.90
2022-12-20T12:29:24.668Z,30.90
2022-12-20T12:32:22.052Z,27.20
2022-12-20T12:35:22.170Z,32.67
2022-12-20T12:38:08.543Z,35.58
2022-12-20T12:41:03.343Z,33.92
2022-12-20T12:46:29.544Z,34.05
2022-12-20T12:49:21.920Z,32.03
2022-12-20T12:52:01.717Z,36.38
2022-12-20T12:54:40.765Z,33.75
2022-12-20T12:57:17.532Z,36.28
2022-12-20T12:59:52.724Z,44.83
2022-12-20T13:02:29.269Z,44.75
2022-12-20T13:05:19.424Z,35.78
2022-12-20T13:07:51.244Z,32.60
2022-12-20T13:10:29.845Z,37.30
2022-12-20T13:13:04.382Z,25.97
2022-12-20T13:18:24.711Z,43.08
2022-12-20T13:21:21.973Z,33.70
2022-12-20T13:24:18.640Z,39.23
2022-12-20T13:26:55.853Z,42.65
2022-12-20T13:29:35.182Z,39.60
2022-12-20T13:32:30.281Z,41.33
2022-12-20T13:35:03.114Z,39.27
2022-12-20T13:37:59.433Z,42.85
2022-12-20T13:40:45.909Z,38.05
2022-12-20T13:43:26.430Z,42.33
2022-12-20T13:46:18.372Z,49.58
2022-12-20T13:49:02.423Z,37.70
2022-12-20T13:51:35.302Z,46.02
2022-12-20T13:54:12.841Z,41.92
2022-12-20T13:56:49.798Z,49.53
2022-12-20T13:59:27.351Z,45.03
2022-12-20T14:02:07.161Z,46.53
2022-12-20T14:04:46.227Z,41.48
2022-12-20T14:07:20.394Z,49.20
2022-12-20T14:10:01.071Z,52.53
2022-12-20T14:12:37.043Z,53.83
2022-12-20T14:15:22.470Z,51.30
2022-12-20T14:17:56.019Z,46.68
2022-12-20T14:23:12.530Z,40.52
2022-12-20T14:25:52.645Z,46.28
2022-12-20T14:28:32.639Z,54.03
2022-12-20T14:31:08.749Z,51.28
2022-12-20T14:33:43.223Z,53.20
2022-12-20T14:36:22.305Z,49.00
2022-12-20T14:38:55.175Z,67.60
2022-12-20T14:41:40.845Z,68.00
2022-12-20T14:44:19.186Z,62.53
2022-12-20T14:46:59.033Z,62.93
2022-12-20T14:49:34.655Z,54.88
2022-12-20T14:52:22.876Z,68.20
2022-12-20T14:55:08.242Z,50.33
2022-12-20T14:57:42.134Z,61.65
2022-12-20T15:00:25.086Z,77.53
2022-12-20T15:03:13.883Z,63.33
2022-12-20T15:05:58.652Z,49.67
2022-12-20T15:08:33.363Z,44.25
2022-12-20T15:11:13.807Z,52.90
2022-12-20T15:13:50.403Z,83.33
2022-12-20T15:16:30.117Z,122.67
2022-12-20T15:19:05.142Z,98.70
2022-12-20T15:21:43.145Z,110.57
2022-12-20T15:24:23.688Z,78.67
2022-12-20T15:26:57.280Z,68.72
2022-12-20T15:29:30.915Z,107.37
2022-12-20T15:32:17.389Z,152.25
2022-12-20T15:34:50.096Z,129.10
2022-12-20T15:37:22.944Z,184.97
2022-12-20T15:39:55.662Z,216.93
2022-12-20T15:42:28.385Z,270.60
2022-12-20T15:45:01.081Z,277.95
2022-12-20T15:47:34.184Z,181.17
2022-12-20T15:50:08.753Z,142.90
2022-12-20T15:52:41.719Z,147.02
2022-12-20T15:55:14.485Z,135.57
2022-12-20T15:57:47.553Z,124.40
2022-12-20T19:02:56.804Z,209.47
2022-12-20T19:18:37.610Z,133.32
2022-12-20T19:21:27.008Z,162.03
2022-12-20T19:24:05.316Z,146.50
2022-12-20T19:26:39.951Z,178.65
2022-12-20T19:29:12.667Z,219.00
2022-12-20T19:31:45.622Z,277.87
2022-12-20T19:34:18.978Z,195.22
2022-12-20T19:36:53.060Z,200.82
2022-12-20T19:39:25.859Z,321.73
2022-12-20T19:44:34.413Z,171.28
2022-12-20T19:47:07.572Z,167.47
2022-12-20T19:49:40.559Z,141.67
2022-12-20T19:52:13.294Z,144.85
2022-12-20T19:54:46.231Z,193.85
2022-12-20T19:57:18.962Z,294.00
2022-12-20T19:59:56.045Z,300.02
2022-12-20T20:02:27.664Z,424.55
2022-12-20T20:05:00.818Z,410.33
2022-12-20T20:07:34.004Z,431.37
2022-12-20T20:10:08.535Z,422.05
2022-12-20T20:12:42.171Z,441.80
2022-12-20T20:15:15.027Z,469.93
2022-12-20T20:17:47.676Z,403.52
2022-12-20T20:20:21.003Z,370.20
2022-12-20T20:22:53.868Z,344.77
2022-12-20T20:25:26.645Z,248.70
2022-12-20T20:27:59.437Z,251.27
2022-12-20T20:30:32.404Z,228.45
2022-12-20T20:33:05.401Z,315.25
2022-12-20T20:35:39.110Z,224.43
2022-12-20T20:38:13.461Z,221.55
2022-12-20T20:40:46.517Z,217.72
2022-12-20T20:43:20.133Z,224.10
2022-12-20T20:45:53.163Z,205.57
2022-12-20T20:48:26.493Z,187.77
2022-12-20T20:51:00.149Z,190.60
2022-12-20T20:53:34.437Z,163.20
2022-12-20T20:56:08.882Z,171.50
2022-12-20T20:58:42.283Z,144.15
2022-12-20T21:01:15.497Z,45.08
2022-12-20T21:03:48.957Z,55.85
2022-12-20T21:08:58.099Z,44.05
2022-12-20T21:11:31.042Z,45.38
2022-12-20T21:14:04.322Z,37.93
2022-12-20T21:16:37.456Z,37.13
2022-12-20T21:19:12.000Z,40.40
2022-12-20T21:21:44.816Z,31.52
2022-12-20T21:24:17.819Z,42.65
2022-12-20T21:26:53.324Z,36.42
2022-12-20T21:29:26.187Z,34.65
2022-12-20T21:31:59.193Z,35.17
2022-12-20T21:34:32.240Z,40.70
2022-12-20T21:37:07.078Z,33.55
2022-12-20T21:39:39.988Z,29.65
2022-12-20T21:42:12.805Z,24.77
2022-12-20T21:44:45.740Z,28.57
2022-12-20T21:47:18.833Z,24.70
2022-12-20T21:49:51.802Z,28.10
2022-12-20T21:52:24.686Z,27.27
2022-12-20T21:54:58.355Z,30.15
2022-12-20T21:57:31.639Z,29.32
2022-12-20T22:00:06.056Z,31.37
2022-12-20T22:02:40.200Z,29.45
2022-12-20T22:05:12.993Z,27.07
2022-12-20T22:07:47.988Z,24.70
2022-12-20T22:10:20.879Z,28.52
2022-12-20T22:12:55.127Z,24.47
2022-12-20T22:15:28.132Z,23.05
2022-12-20T22:18:00.977Z,23.02
2022-12-20T22:20:35.300Z,24.12
2022-12-20T22:23:08.044Z,20.27
2022-12-20T22:25:41.650Z,23.45
2022-12-20T22:28:14.590Z,22.15
2022-12-20T22:30:47.632Z,23.00
2022-12-20T22:33:20.581Z,19.05
2022-12-20T22:35:53.719Z,18.80
2022-12-20T22:38:26.589Z,26.12
2022-12-20T22:41:17.319Z,22.13
2022-12-20T22:43:51.016Z,23.15
2022-12-20T22:46:24.330Z,25.02
2022-12-20T22:48:57.685Z,20.10
2022-12-20T22:51:32.873Z,20.62
2022-12-20T22:54:05.794Z,21.15
2022-12-20T22:56:38.557Z,18.23
2022-12-20T22:59:11.269Z,25.88
2022-12-20T23:01:44.409Z,21.50
2022-12-20T23:04:17.668Z,18.77
2022-12-20T23:06:50.681Z,16.32
2022-12-20T23:09:28.624Z,18.77
2022-12-20T23:12:19.512Z,19.90
2022-12-20T23:15:10.812Z,20.80
2022-12-20T23:17:43.632Z,20.10
2022-12-20T23:20:34.300Z,21.30
2022-12-20T23:23:07.836Z,21.65
2022-12-20T23:25:42.237Z,21.48
2022-12-20T23:28:14.943Z,16.57
2022-12-20T23:30:47.880Z,22.52
2022-12-20T23:33:20.577Z,17.50
2022-12-20T23:36:01.012Z,18.82
2022-12-20T23:38:39.017Z,21.57
2022-12-20T23:41:15.539Z,21.52
2022-12-20T23:43:48.556Z,24.57
2022-12-20T23:46:25.000Z,19.82
2022-12-20T23:49:00.105Z,21.77
2022-12-20T23:51:34.525Z,24.07
2022-12-20T23:54:07.536Z,22.60
2022-12-20T23:56:40.410Z,25.20
2022-12-20T23:59:13.077Z,22.45
